createdAt,value
2022-09-06T00:00:55.412Z,6.35
2022-09-06T00:03:22.535Z,4.22
2022-09-06T00:05:49.484Z,5.72
2022-09-06T00:08:16.766Z,7.70
2022-09-06T00:10:44.937Z,6.90
2022-09-06T00:13:12.167Z,6.65
2022-09-06T00:15:39.273Z,5.75
2022-09-06T00:18:07.412Z,9.00
2022-09-06T00:20:34.745Z,5.05
2022-09-06T00:23:04.110Z,5.90
2022-09-06T00:25:31.600Z,6.80
2022-09-06T00:28:02.551Z,8.52
2022-09-06T00:30:30.815Z,12.20
2022-09-06T00:32:57.830Z,5.25
2022-09-06T00:35:26.553Z,6.10
2022-09-06T00:37:56.980Z,6.55
2022-09-06T00:40:23.850Z,6.45
2022-09-06T00:42:50.843Z,4.90
2022-09-06T00:45:19.582Z,5.97
2022-09-06T00:47:48.105Z,7.05
2022-09-06T00:50:17.909Z,6.72
2022-09-06T00:52:46.942Z,8.23
2022-09-06T00:55:14.568Z,7.60
2022-09-06T00:57:42.108Z,7.75
2022-09-06T01:00:10.091Z,8.32
2022-09-06T01:02:38.529Z,7.30
2022-09-06T01:05:06.517Z,7.00
2022-09-06T01:07:47.612Z,6.22
2022-09-06T01:10:35.867Z,11.45
2022-09-06T01:13:13.840Z,8.93
2022-09-06T01:15:49.336Z,7.72
2022-09-06T01:18:30.391Z,9.45
2022-09-06T01:21:15.351Z,6.43
2022-09-06T01:24:25.926Z,9.43
2022-09-06T01:27:20.666Z,13.63
2022-09-06T01:29:51.684Z,11.35
2022-09-06T01:32:28.095Z,6.88
2022-09-06T01:35:05.800Z,7.90
2022-09-06T01:37:33.078Z,8.95
2022-09-06T01:39:59.955Z,8.63
2022-09-06T01:42:30.961Z,8.57
2022-09-06T01:45:02.497Z,10.75
2022-09-06T01:47:39.889Z,9.88
2022-09-06T01:50:27.330Z,9.85
2022-09-06T01:53:06.012Z,8.07
2022-09-06T01:55:39.373Z,9.85
2022-09-06T01:58:19.727Z,11.30
2022-09-06T02:00:55.540Z,10.90
2022-09-06T02:03:32.581Z,10.25
2022-09-06T02:06:05.390Z,13.30
2022-09-06T02:08:37.171Z,12.83
2022-09-06T02:11:06.780Z,12.45
2022-09-06T02:13:45.224Z,13.82
2022-09-06T02:16:17.664Z,13.95
2022-09-06T02:18:51.289Z,13.50
2022-09-06T02:21:22.471Z,13.40
2022-09-06T02:23:51.460Z,15.68
2022-09-06T02:26:22.056Z,10.55
2022-09-06T02:28:49.595Z,12.50
2022-09-06T02:31:22.272Z,10.98
2022-09-06T02:33:51.215Z,12.37
2022-09-06T02:36:19.034Z,17.13
2022-09-06T02:38:46.282Z,11.35
2022-09-06T02:41:14.744Z,11.48
2022-09-06T02:43:43.043Z,13.00
2022-09-06T02:46:10.284Z,12.32
2022-09-06T02:48:38.514Z,13.63
2022-09-06T02:51:06.998Z,16.40
2022-09-06T02:53:33.963Z,13.68
2022-09-06T02:56:00.951Z,12.05
2022-09-06T02:58:28.387Z,11.80
2022-09-06T03:00:55.295Z,14.07
2022-09-06T03:03:23.126Z,15.88
2022-09-06T03:05:53.074Z,13.85
2022-09-06T03:08:21.693Z,15.13
2022-09-06T03:10:49.731Z,15.30
2022-09-06T03:13:17.220Z,18.88
2022-09-06T03:15:44.198Z,12.45
2022-09-06T03:18:11.303Z,12.68
2022-09-06T03:20:38.111Z,12.48
2022-09-06T03:23:06.368Z,17.13
2022-09-06T03:25:33.234Z,16.17
2022-09-06T03:27:59.996Z,14.38
2022-09-06T03:30:26.899Z,12.13
2022-09-06T03:32:54.125Z,16.83
2022-09-06T03:35:20.925Z,11.85
2022-09-06T03:37:47.735Z,13.82
2022-09-06T03:40:16.041Z,14.75
2022-09-06T03:42:42.831Z,12.88
2022-09-06T03:45:10.267Z,10.75
2022-09-06T03:47:37.103Z,13.52
2022-09-06T03:50:04.544Z,11.32
2022-09-06T03:52:31.396Z,13.93
2022-09-06T03:54:58.281Z,11.48
2022-09-06T03:57:26.473Z,12.32
2022-09-06T03:59:53.326Z,11.32
2022-09-06T04:02:20.288Z,11.43
2022-09-06T04:04:47.176Z,15.20
2022-09-06T04:07:13.988Z,13.90
2022-09-06T04:09:41.059Z,17.40
2022-09-06T04:12:08.159Z,12.73
2022-09-06T04:14:36.328Z,13.93
2022-09-06T04:17:03.154Z,14.57
2022-09-06T04:19:30.001Z,17.30
2022-09-06T04:21:56.849Z,12.60
2022-09-06T04:24:23.733Z,11.68
2022-09-06T04:26:50.520Z,12.48
2022-09-06T04:29:17.316Z,17.90
2022-09-06T04:31:45.537Z,17.85
2022-09-06T04:34:12.463Z,15.95
2022-09-06T04:36:39.476Z,14.55
2022-09-06T04:39:06.364Z,16.85
2022-09-06T04:41:33.322Z,13.48
2022-09-06T04:44:00.213Z,17.50
2022-09-06T04:46:28.981Z,20.60
2022-09-06T04:48:57.813Z,12.43
2022-09-06T04:51:25.183Z,14.05
2022-09-06T04:53:52.562Z,14.32
2022-09-06T04:56:21.990Z,12.85
2022-09-06T04:58:49.799Z,16.50
2022-09-06T05:01:16.931Z,15.52
2022-09-06T05:03:43.795Z,12.98
2022-09-06T05:06:13.974Z,15.05
2022-09-06T05:08:41.862Z,15.10
2022-09-06T05:11:09.286Z,14.25
2022-09-06T05:13:36.132Z,17.27
2022-09-06T05:16:04.804Z,15.10
2022-09-06T05:18:32.390Z,16.35
2022-09-06T05:20:59.607Z,19.33
2022-09-06T05:23:28.257Z,20.15
2022-09-06T05:25:55.272Z,18.92
2022-09-06T05:28:22.407Z,16.45
2022-09-06T05:30:49.264Z,19.30
2022-09-06T05:33:22.139Z,14.75
2022-09-06T05:35:49.614Z,17.90
2022-09-06T05:38:16.534Z,19.90
2022-09-06T05:40:44.697Z,19.27
2022-09-06T05:43:11.502Z,15.32
2022-09-06T05:45:38.449Z,17.50
2022-09-06T05:48:05.313Z,17.90
2022-09-06T05:50:32.199Z,18.55
2022-09-06T05:52:58.991Z,20.88
2022-09-06T05:55:26.207Z,17.63
2022-09-06T05:57:54.488Z,16.58
2022-09-06T06:00:21.691Z,16.08
2022-09-06T06:02:49.096Z,23.02
2022-09-06T06:05:16.227Z,20.02
2022-09-06T06:07:43.184Z,18.90
2022-09-06T06:10:10.617Z,20.30
2022-09-06T06:12:37.615Z,21.58
2022-09-06T06:15:06.953Z,21.63
2022-09-06T06:17:34.040Z,18.88
2022-09-06T06:20:00.883Z,21.35
2022-09-06T06:22:27.720Z,19.73
2022-09-06T06:24:54.493Z,28.52
2022-09-06T06:27:21.295Z,22.30
2022-09-06T06:29:48.249Z,14.20
2022-09-06T06:32:16.453Z,21.55
2022-09-06T06:34:43.235Z,14.57
2022-09-06T06:37:10.023Z,20.42
2022-09-06T06:39:37.238Z,16.02
2022-09-06T06:42:04.391Z,15.73
2022-09-06T06:44:31.216Z,12.30
2022-09-06T06:46:58.870Z,17.42
2022-09-06T06:49:27.166Z,14.60
2022-09-06T06:51:54.002Z,19.58
2022-09-06T06:54:20.748Z,10.55
2022-09-06T06:56:47.820Z,10.55
2022-09-06T06:59:14.638Z,10.52
2022-09-06T07:01:41.609Z,19.23
2022-09-06T07:04:10.541Z,8.27
2022-09-06T07:12:27.061Z,12.30
2022-09-06T07:14:53.942Z,10.55
2022-09-06T07:17:20.717Z,10.77
2022-09-06T07:20:17.527Z,9.00
2022-09-06T07:22:36.267Z,10.55
2022-09-06T07:25:03.230Z,11.18
2022-09-06T07:30:14.301Z,6.72
2022-09-06T07:32:41.213Z,9.65
2022-09-06T07:35:09.013Z,16.25
2022-09-06T07:37:37.181Z,12.25
2022-09-06T07:40:05.165Z,9.73
2022-09-06T07:42:36.431Z,8.82
2022-09-06T07:45:03.752Z,11.80
2022-09-06T07:55:38.159Z,5.78
2022-09-06T07:58:05.161Z,6.10
2022-09-06T08:00:32.216Z,9.77
2022-09-06T08:02:59.382Z,8.38
2022-09-06T08:11:01.890Z,7.03
2022-09-06T08:13:28.862Z,10.55
2022-09-06T08:15:58.757Z,7.60
2022-09-06T08:18:25.652Z,8.10
2022-09-06T08:20:52.626Z,9.10
2022-09-06T08:23:20.998Z,5.70
2022-09-06T08:25:57.058Z,8.63
2022-09-06T08:28:28.150Z,7.95
2022-09-06T08:30:55.671Z,7.80
2022-09-06T08:33:25.527Z,6.65
2022-09-06T08:35:56.285Z,25.48
2022-09-06T08:38:24.943Z,9.93
2022-09-06T08:40:52.769Z,6.95
2022-09-06T08:43:21.304Z,7.55
2022-09-06T08:45:55.643Z,9.95
2022-09-06T08:48:25.274Z,8.25
2022-09-06T08:51:01.783Z,8.93
2022-09-06T08:53:31.005Z,16.15
2022-09-06T08:56:05.080Z,10.40
2022-09-06T08:58:52.946Z,7.80
2022-09-06T09:01:27.559Z,5.32
2022-09-06T09:03:58.025Z,6.43
2022-09-06T09:06:26.859Z,10.90
2022-09-06T09:09:01.965Z,5.05
2022-09-06T09:11:30.051Z,9.85
2022-09-06T09:14:03.904Z,8.20
2022-09-06T09:16:31.014Z,11.13
2022-09-06T09:19:00.682Z,10.32
2022-09-06T09:21:31.257Z,13.32
2022-09-06T09:24:05.627Z,7.30
2022-09-06T09:26:37.149Z,11.15
2022-09-06T09:29:11.041Z,4.78
2022-09-06T09:31:39.982Z,8.90
2022-09-06T09:34:11.589Z,7.13
2022-09-06T09:36:40.051Z,3.45
2022-09-06T09:39:12.071Z,7.90
2022-09-06T09:41:43.091Z,4.47
2022-09-06T09:44:16.419Z,3.65
2022-09-06T09:49:11.814Z,6.35
2022-09-06T09:51:40.308Z,8.95
2022-09-06T09:54:09.293Z,5.93
2022-09-06T09:56:43.759Z,4.85
2022-09-06T09:59:23.994Z,4.70
2022-09-06T10:01:54.023Z,5.03
2022-09-06T10:04:43.907Z,2.67
2022-09-06T10:07:15.037Z,5.72
2022-09-06T10:09:43.914Z,5.38
2022-09-06T10:12:18.007Z,5.63
2022-09-06T10:14:47.501Z,4.50
2022-09-06T10:17:30.753Z,6.63
2022-09-06T10:20:00.242Z,6.25
2022-09-06T10:22:29.176Z,4.35
2022-09-06T10:25:34.278Z,4.38
2022-09-06T10:28:30.167Z,5.07
2022-09-06T10:31:13.175Z,4.55
2022-09-06T10:33:51.045Z,5.57
2022-09-06T10:36:21.663Z,4.38
2022-09-06T10:38:54.468Z,3.63
2022-09-06T10:41:43.014Z,5.60
2022-09-06T10:44:23.297Z,4.80
2022-09-06T10:47:04.745Z,5.22
2022-09-06T10:49:33.125Z,4.55
2022-09-06T10:52:03.754Z,4.00
2022-09-06T10:54:33.479Z,6.60
2022-09-06T10:57:04.708Z,6.25
2022-09-06T11:02:16.775Z,11.45
2022-09-06T11:07:37.930Z,5.70
2022-09-06T11:10:11.565Z,2.75
2022-09-06T11:12:42.698Z,3.65
2022-09-06T11:15:14.243Z,3.75
2022-09-06T11:17:46.960Z,4.95
2022-09-06T11:20:22.196Z,6.00
2022-09-06T11:23:11.504Z,5.38
2022-09-06T11:26:18.959Z,4.22
2022-09-06T11:28:49.413Z,4.85
2022-09-06T11:34:20.889Z,5.30
2022-09-06T11:36:49.584Z,5.75
2022-09-06T11:42:40.617Z,3.88
2022-09-06T11:45:21.303Z,2.03
2022-09-06T11:47:51.286Z,2.83
2022-09-06T11:50:46.553Z,8.25
2022-09-06T11:53:17.011Z,6.30
2022-09-06T11:55:46.094Z,2.65
2022-09-06T11:58:25.231Z,4.00
2022-09-06T12:01:35.603Z,7.43
2022-09-06T12:04:07.377Z,3.10
2022-09-06T12:06:37.870Z,5.00
2022-09-06T12:09:32.563Z,8.70
2022-09-06T12:12:00.503Z,8.18
2022-09-06T12:14:32.153Z,7.85
2022-09-06T12:17:26.123Z,2.03
2022-09-06T12:19:56.410Z,3.42
2022-09-06T12:23:03.075Z,3.90
2022-09-06T12:26:00.625Z,4.43
2022-09-06T12:28:40.211Z,9.30
2022-09-06T12:31:34.861Z,7.28
2022-09-06T12:34:08.817Z,3.85
2022-09-06T12:36:49.068Z,3.28
2022-09-06T12:39:16.258Z,5.32
2022-09-06T12:41:47.549Z,12.02
2022-09-06T12:44:16.089Z,8.45
2022-09-06T12:46:47.580Z,6.13
2022-09-06T12:49:17.698Z,4.78
2022-09-06T12:51:45.888Z,3.13
2022-09-06T12:54:21.035Z,6.10
2022-09-06T12:56:48.308Z,11.15
2022-09-06T12:59:19.366Z,2.80
2022-09-06T13:02:02.279Z,4.38
2022-09-06T13:04:39.973Z,3.22
2022-09-06T13:07:13.047Z,10.27
2022-09-06T13:09:44.457Z,3.42
2022-09-06T13:12:21.898Z,6.05
2022-09-06T13:14:52.531Z,4.97
2022-09-06T13:17:24.337Z,4.45
2022-09-06T13:19:51.282Z,4.60
2022-09-06T13:22:42.740Z,3.33
2022-09-06T13:25:24.078Z,3.63
2022-09-06T13:27:56.603Z,2.47
2022-09-06T13:30:33.125Z,4.28
2022-09-06T13:33:00.729Z,6.53
2022-09-06T13:35:30.541Z,8.18
2022-09-06T13:38:21.149Z,3.75
2022-09-06T13:41:11.677Z,7.60
2022-09-06T13:43:42.997Z,4.32
2022-09-06T13:46:11.794Z,3.67
2022-09-06T13:48:43.184Z,2.95
2022-09-06T13:51:10.163Z,6.15
2022-09-06T13:53:38.348Z,3.97
2022-09-06T13:56:08.790Z,2.70
2022-09-06T13:58:36.159Z,2.05
2022-09-06T14:01:04.200Z,3.17
2022-09-06T14:03:32.501Z,5.07
2022-09-06T14:06:02.478Z,5.57
2022-09-06T14:08:49.250Z,6.32
2022-09-06T14:11:18.694Z,2.38
2022-09-06T14:13:45.635Z,2.88
2022-09-06T14:16:12.972Z,1.60
2022-09-06T14:18:40.620Z,3.22
2022-09-06T14:21:08.057Z,5.25
2022-09-06T14:23:34.886Z,2.92
2022-09-06T14:26:03.673Z,4.72
2022-09-06T14:28:34.127Z,3.45
2022-09-06T14:31:10.429Z,2.78
2022-09-06T14:33:37.731Z,10.30
2022-09-06T14:36:09.951Z,3.42
2022-09-06T14:38:38.326Z,1.70
2022-09-06T14:41:06.257Z,3.47
2022-09-06T14:43:35.381Z,1.75
2022-09-06T14:46:03.919Z,3.58
2022-09-06T14:48:31.514Z,2.95
2022-09-06T14:50:58.833Z,5.43
2022-09-06T14:53:40.422Z,4.25
2022-09-06T14:56:08.572Z,4.28
2022-09-06T14:58:38.190Z,3.65
2022-09-06T15:01:11.793Z,2.95
2022-09-06T15:03:39.809Z,9.48
2022-09-06T15:06:08.151Z,3.17
2022-09-06T15:08:35.060Z,6.55
2022-09-06T15:11:02.231Z,2.47
2022-09-06T15:13:29.251Z,25.10
2022-09-06T15:15:57.709Z,4.68
2022-09-06T15:18:24.684Z,6.75
2022-09-06T15:20:51.607Z,3.42
2022-09-06T15:23:25.913Z,3.00
2022-09-06T15:25:53.506Z,4.50
2022-09-06T15:28:20.422Z,3.47
2022-09-06T15:30:48.024Z,4.80
2022-09-06T15:33:16.419Z,3.63
2022-09-06T15:35:44.114Z,37.03
2022-09-06T15:38:11.461Z,3.33
2022-09-06T15:40:39.078Z,3.35
2022-09-06T15:43:06.301Z,6.00
2022-09-06T15:45:46.750Z,3.45
2022-09-06T15:48:15.331Z,3.50
2022-09-06T15:50:51.331Z,3.13
2022-09-06T15:53:18.782Z,2.22
2022-09-06T15:55:57.364Z,7.45
2022-09-06T15:58:24.849Z,1.67
2022-09-06T16:01:03.233Z,3.75
2022-09-06T16:03:30.554Z,14.45
2022-09-06T16:11:19.295Z,2.67
2022-09-06T16:13:46.576Z,4.93
2022-09-06T16:16:15.468Z,5.18
2022-09-06T16:18:44.318Z,1.75
2022-09-06T16:21:14.472Z,2.72
2022-09-06T16:23:42.665Z,2.53
2022-09-06T16:26:09.954Z,5.25
2022-09-06T16:28:37.900Z,8.13
2022-09-06T16:31:06.651Z,21.20
2022-09-06T16:33:35.037Z,4.20
2022-09-06T16:36:03.971Z,13.02
2022-09-06T16:38:33.470Z,6.75
2022-09-06T16:41:09.019Z,3.90
2022-09-06T16:43:35.872Z,2.78
2022-09-06T16:46:04.368Z,3.17
2022-09-06T16:48:31.791Z,4.90
2022-09-06T16:51:07.636Z,13.57
2022-09-06T16:53:36.253Z,13.80
2022-09-06T16:56:03.512Z,13.75
2022-09-06T16:58:30.426Z,2.75
2022-09-06T17:00:57.304Z,26.77
2022-09-06T17:03:24.141Z,49.78
2022-09-06T17:05:51.171Z,29.73
2022-09-06T17:08:18.006Z,14.50
2022-09-06T17:10:46.533Z,13.13
2022-09-06T17:13:13.751Z,7.03
2022-09-06T17:15:58.971Z,16.25
2022-09-06T17:18:26.947Z,10.32
2022-09-06T17:20:58.427Z,16.10
2022-09-06T17:23:25.355Z,5.68
2022-09-06T17:25:54.038Z,5.13
2022-09-06T17:28:21.130Z,2.40
2022-09-06T17:30:48.095Z,3.05
2022-09-06T17:33:17.600Z,6.72
2022-09-06T17:35:44.818Z,5.93
2022-09-06T17:38:12.147Z,4.88
2022-09-06T17:40:39.147Z,6.50
2022-09-06T17:43:07.411Z,3.33
2022-09-06T17:45:36.998Z,3.38
2022-09-06T17:48:04.176Z,2.42
2022-09-06T17:50:31.352Z,4.55
2022-09-06T17:52:58.359Z,4.28
2022-09-06T17:55:26.994Z,6.30
2022-09-06T17:57:53.786Z,8.35
2022-09-06T18:00:23.237Z,3.97
2022-09-06T18:02:50.314Z,4.57
2022-09-06T18:05:17.464Z,7.95
2022-09-06T18:07:45.366Z,7.32
2022-09-06T18:10:14.560Z,14.85
2022-09-06T18:12:42.366Z,8.57
2022-09-06T18:15:10.535Z,4.63
2022-09-06T18:17:38.875Z,9.73
2022-09-06T18:20:06.981Z,7.00
2022-09-06T18:22:33.905Z,9.38
2022-09-06T18:25:00.808Z,2.10
2022-09-06T18:27:28.268Z,2.88
2022-09-06T18:29:55.687Z,12.27
2022-09-06T18:32:22.671Z,4.07
2022-09-06T18:34:50.879Z,5.10
2022-09-06T18:37:17.842Z,6.85
2022-09-06T18:39:44.755Z,7.95
2022-09-06T18:42:11.695Z,3.72
2022-09-06T18:44:38.859Z,4.85
2022-09-06T18:47:08.350Z,4.50
2022-09-06T18:49:36.503Z,6.05
2022-09-06T18:52:06.423Z,9.95
2022-09-06T18:54:33.512Z,6.30
2022-09-06T18:57:00.443Z,8.68
2022-09-06T18:59:27.565Z,17.50
2022-09-06T19:01:54.492Z,15.07
2022-09-06T19:04:21.519Z,25.83
2022-09-06T19:06:49.392Z,10.35
2022-09-06T19:09:17.837Z,12.88
2022-09-06T19:11:45.682Z,13.70
2022-09-06T19:14:13.235Z,13.88
2022-09-06T19:16:41.987Z,12.25
2022-09-06T19:19:09.936Z,12.25
2022-09-06T19:21:41.775Z,10.32
2022-09-06T19:24:11.233Z,10.13
2022-09-06T19:26:41.747Z,9.60
2022-09-06T19:29:12.708Z,17.10
2022-09-06T19:31:39.618Z,14.02
2022-09-06T19:34:07.438Z,12.07
2022-09-06T19:36:34.604Z,9.57
2022-09-06T19:39:05.626Z,12.35
2022-09-06T19:41:34.793Z,12.30
2022-09-06T19:44:05.739Z,10.13
2022-09-06T19:46:33.655Z,7.32
2022-09-06T19:49:00.948Z,16.98
2022-09-06T19:51:27.905Z,13.75
2022-09-06T19:54:02.537Z,6.90
2022-09-06T19:56:31.714Z,11.77
2022-09-06T19:59:00.698Z,13.40
2022-09-06T20:01:31.106Z,9.30
2022-09-06T20:03:58.834Z,8.32
2022-09-06T20:06:26.874Z,12.68
2022-09-06T20:08:55.556Z,7.18
2022-09-06T20:11:24.762Z,7.65
2022-09-06T20:13:51.869Z,6.20
2022-09-06T20:16:20.743Z,4.95
2022-09-06T20:18:49.328Z,6.45
2022-09-06T20:21:18.470Z,17.13
2022-09-06T20:23:49.424Z,8.40
2022-09-06T20:26:16.703Z,10.73
2022-09-06T20:28:44.225Z,5.82
2022-09-06T20:31:13.510Z,7.55
2022-09-06T20:33:40.558Z,5.53
2022-09-06T20:36:10.450Z,6.97
2022-09-06T20:38:39.814Z,6.95
2022-09-06T20:41:08.450Z,7.95
2022-09-06T20:43:36.919Z,5.65
2022-09-06T20:46:05.461Z,8.35
2022-09-06T20:48:33.535Z,4.45
2022-09-06T20:51:02.152Z,4.95
2022-09-06T20:53:31.776Z,7.63
2022-09-06T20:56:00.349Z,5.32
2022-09-06T20:58:28.127Z,4.60
2022-09-06T21:00:55.601Z,8.63
2022-09-06T21:03:23.084Z,7.63
2022-09-06T21:05:50.152Z,9.60
2022-09-06T21:08:17.695Z,10.50
2022-09-06T21:10:46.245Z,5.65
2022-09-06T21:13:13.466Z,6.70
2022-09-06T21:15:43.609Z,3.95
2022-09-06T21:18:10.541Z,6.53
2022-09-06T21:20:37.390Z,6.55
2022-09-06T21:23:04.432Z,6.95
2022-09-06T21:25:31.414Z,7.65
2022-09-06T21:27:59.671Z,6.45
2022-09-06T21:30:26.534Z,5.78
2022-09-06T21:32:55.024Z,6.47
2022-09-06T21:35:22.168Z,7.80
2022-09-06T21:37:49.054Z,6.95
2022-09-06T21:40:16.384Z,4.40
2022-09-06T21:42:43.233Z,5.35
2022-09-06T21:45:13.102Z,5.68
2022-09-06T21:47:40.036Z,4.93
2022-09-06T21:50:07.471Z,5.20
2022-09-06T21:52:34.403Z,3.28
2022-09-06T21:55:01.259Z,12.50
2022-09-06T21:57:28.057Z,3.75
2022-09-06T21:59:54.889Z,5.55
2022-09-06T22:02:23.674Z,5.00
2022-09-06T22:04:51.423Z,4.97
2022-09-06T22:07:18.631Z,3.30
2022-09-06T22:09:45.518Z,5.15
2022-09-06T22:12:12.356Z,7.13
2022-09-06T22:14:39.171Z,6.38
2022-09-06T22:17:06.081Z,8.10
2022-09-06T22:19:34.247Z,6.70
2022-09-06T22:22:01.056Z,6.82
2022-09-06T22:24:28.045Z,3.50
2022-09-06T22:26:54.855Z,7.90
2022-09-06T22:29:21.759Z,5.30
2022-09-06T22:31:48.605Z,4.55
2022-09-06T22:34:15.606Z,8.65
2022-09-06T22:36:44.296Z,5.85
2022-09-06T22:39:11.154Z,3.88
2022-09-06T22:41:38.046Z,7.07
2022-09-06T22:44:05.382Z,5.57
2022-09-06T22:46:32.845Z,7.97
2022-09-06T22:49:00.539Z,12.05
2022-09-06T22:51:27.403Z,5.53
2022-09-06T22:53:55.632Z,5.03
2022-09-06T22:56:22.599Z,5.53
2022-09-06T22:58:49.860Z,6.80
2022-09-06T23:01:17.251Z,10.77
2022-09-06T23:03:44.682Z,9.10
2022-09-06T23:06:11.941Z,6.28
2022-09-06T23:08:40.252Z,5.43
2022-09-06T23:11:11.732Z,7.60
2022-09-06T23:13:43.454Z,7.38
2022-09-06T23:16:12.302Z,8.57
2022-09-06T23:18:39.227Z,6.25
2022-09-06T23:21:07.476Z,8.43
2022-09-06T23:23:35.031Z,6.07
2022-09-06T23:26:07.161Z,9.55
2022-09-06T23:28:35.965Z,7.68
2022-09-06T23:31:03.458Z,8.45
2022-09-06T23:33:31.389Z,8.65
2022-09-06T23:35:58.542Z,11.13
2022-09-06T23:38:25.437Z,7.38
2022-09-06T23:40:52.881Z,18.80
2022-09-06T23:43:20.379Z,7.10
2022-09-06T23:45:48.601Z,10.23
2022-09-06T23:48:15.444Z,6.65
2022-09-06T23:50:43.416Z,13.63
2022-09-06T23:53:10.579Z,14.77
2022-09-06T23:55:37.516Z,11.10
2022-09-06T23:58:04.585Z,11.18
